Time;durP1;ratioP1;P1;durP2;ratioP2;P2;SDS_P1;SDS_P2;PMS_P1;PMS_P2;Temp;Humidity;BMP_temperature;BMP_pressure;BME280_temperature;BME280_humidity;BME280_pressure;Samples;Min_cycle;Max_cycle;Signal;HPM_P1;HPM_P2
2021/10/04 00:00:36;;;;;;;1999.90;999.90;;;;;;;19.85;62.64;100753.84;15549925;28;20070;-62
2021/10/04 00:08:10;;;;;;;1999.90;999.90;;;;;;;19.69;62.54;100769.50;15476556;28;20101;-62
2021/10/04 00:15:42;;;;;;;1999.90;999.90;;;;;;;19.76;63.32;100769.53;15476740;28;20070;-60
2021/10/04 00:23:16;;;;;;;1999.90;999.90;;;;;;;19.75;64.19;100776.41;15477579;28;20043;-61
2021/10/04 00:30:48;;;;;;;1999.90;999.90;;;;;;;19.69;64.72;100778.78;15494212;28;20108;-62
2021/10/04 00:38:22;;;;;;;1999.90;999.90;;;;;;;19.61;64.66;100782.78;15540319;22;20108;-77
2021/10/04 00:45:54;;;;;;;1999.90;999.90;;;;;;;19.49;66.35;100783.09;15553705;28;20125;-76
2021/10/04 00:53:28;;;;;;;1999.90;999.90;;;;;;;19.47;66.78;100799.63;15643248;22;20041;-59
2021/10/04 01:01:00;;;;;;;1999.90;999.90;;;;;;;19.28;68.20;100806.34;15669619;28;20076;-60
2021/10/04 01:08:34;;;;;;;1999.90;999.90;;;;;;;19.14;68.95;100809.03;15686784;28;20077;-60
2021/10/04 01:16:08;;;;;;;1999.90;999.90;;;;;;;19.41;69.16;100809.69;15686311;28;20041;-60
2021/10/04 01:23:41;;;;;;;1999.90;999.90;;;;;;;19.35;70.68;100829.03;15686722;28;20108;-60
2021/10/04 01:31:14;;;;;;;1999.90;999.90;;;;;;;19.31;70.82;100834.66;15666991;28;20441;-60
2021/10/04 01:38:48;;;;;;;1999.90;999.90;;;;;;;19.42;71.09;100859.41;15646724;28;20390;-60
2021/10/04 01:46:21;;;;;;;1999.90;999.90;;;;;;;19.45;71.00;100881.25;15637435;28;20107;-60
2021/10/04 01:53:54;;;;;;;1999.90;999.90;;;;;;;19.40;71.65;100884.47;15603508;28;20140;-60
2021/10/04 02:01:27;;;;;;;1999.90;999.90;;;;;;;19.27;71.47;100900.88;15604101;28;20371;-60
2021/10/04 02:09:00;;;;;;;1999.90;999.90;;;;;;;19.04;71.29;100907.50;15587576;28;20498;-61
2021/10/04 02:16:32;;;;;;;1999.90;999.90;;;;;;;19.11;71.76;100918.09;15602946;28;20079;-60
2021/10/04 02:24:07;;;;;;;1999.90;999.90;;;;;;;18.96;72.27;100919.91;15586820;28;20111;-61
2021/10/04 02:31:39;;;;;;;1999.90;999.90;;;;;;;19.03;71.79;100939.00;15587625;28;20131;-59
2021/10/04 02:39:12;;;;;;;1999.90;999.90;;;;;;;18.95;72.14;100921.13;15577775;28;20364;-60
2021/10/04 02:46:46;;;;;;;1999.90;999.90;;;;;;;18.93;71.80;100940.50;15540685;28;20499;-60
2021/10/04 02:54:20;;;;;;;1999.90;999.90;;;;;;;18.53;71.54;100943.94;15557259;28;20042;-60
2021/10/04 03:01:54;;;;;;;1999.90;999.90;;;;;;;18.60;69.90;100952.53;15557133;28;20049;-60
2021/10/04 03:09:28;;;;;;;1999.90;999.90;;;;;;;18.40;70.61;100965.16;15539248;28;20053;-60
2021/10/04 03:17:01;;;;;;;1999.90;999.90;;;;;;;18.43;69.99;100967.22;15556916;28;20053;-59
2021/10/04 03:24:34;;;;;;;1999.90;999.90;;;;;;;18.27;70.30;100987.16;15556033;28;20286;-59
2021/10/04 03:32:08;;;;;;;1999.90;999.90;;;;;;;18.24;70.38;101009.72;15557508;28;20578;-58
2021/10/04 03:39:41;;;;;;;;;;;;;;;18.19;70.81;101019.31;15602298;28;20041;-60
2021/10/04 03:47:14;;;;;;;1999.90;999.90;;;;;;;18.09;71.14;101031.22;15599076;28;19921;-59
2021/10/04 03:54:48;;;;;;;;;;;;;;;18.02;71.62;101020.63;15616495;28;20042;-60
2021/10/04 04:02:20;;;;;;;1999.90;999.90;;;;;;;18.08;72.13;101043.72;15582564;28;20119;-60
2021/10/04 04:09:54;;;;;;;1999.90;999.90;;;;;;;18.05;71.67;101064.25;15598548;28;20289;-60
2021/10/04 04:17:26;;;;;;;1999.90;999.90;;;;;;;18.01;71.18;101061.34;15616246;28;20050;-60
2021/10/04 04:25:00;;;;;;;1999.90;999.90;;;;;;;17.71;71.48;101085.75;15606069;28;20095;-60
2021/10/04 04:32:32;;;;;;;1999.90;999.90;;;;;;;17.59;70.61;101103.63;15627360;28;20489;-61
2021/10/04 04:40:08;;;;;;;1999.90;999.90;;;;;;;17.41;70.18;101089.16;15578170;28;20074;-60
2021/10/04 04:47:40;;;;;;;1999.90;999.90;;;;;;;17.58;69.82;101107.63;15546806;28;20056;-59
2021/10/04 04:55:14;;;;;;;1999.90;999.90;;;;;;;17.46;70.52;101117.06;15563416;28;20049;-60
2021/10/04 05:02:48;;;;;;;1999.90;999.90;;;;;;;17.53;70.37;101128.50;15563195;28;20088;-60
2021/10/04 05:10:21;;;;;;;1999.90;999.90;;;;;;;17.53;70.63;101131.34;15545393;28;20049;-61
2021/10/04 05:17:53;;;;;;;1999.90;999.90;;;;;;;17.58;70.19;101144.31;15562577;28;20672;-60
2021/10/04 05:25:27;;;;;;;1999.90;999.90;;;;;;;17.54;70.24;101147.06;15563147;28;20141;-60
2021/10/04 05:33:00;;;;;;;1999.90;999.90;;;;;;;17.38;70.50;101159.59;15561832;28;20431;-60
2021/10/04 05:40:33;;;;;;;1999.90;999.90;;;;;;;17.43;70.85;101179.06;15614840;28;20383;-61
2021/10/04 05:48:06;;;;;;;1999.90;999.90;;;;;;;17.45;70.22;101180.31;15604961;28;20041;-58
2021/10/04 05:55:39;;;;;;;1999.90;999.90;;;;;;;17.31;71.04;101183.66;15622407;28;20406;-59
2021/10/04 06:03:12;;;;;;;1999.90;999.90;;;;;;;17.20;71.75;101176.13;15604146;28;20596;-60
2021/10/04 06:10:46;;;;;;;1999.90;999.90;;;;;;;17.39;71.34;101190.25;15620837;28;20042;-62
2021/10/04 06:18:18;;;;;;;1999.90;999.90;;;;;;;17.38;71.07;101188.63;15636315;28;20033;-62
2021/10/04 06:25:52;;;;;;;1999.90;999.90;;;;;;;17.32;71.29;101195.75;15620307;28;20055;-60
2021/10/04 06:33:24;;;;;;;1999.90;999.90;;;;;;;17.40;71.37;101216.44;15619999;28;20049;-61
2021/10/04 06:40:58;;;;;;;1999.90;999.90;;;;;;;17.39;72.11;101234.56;15529157;28;20505;-61
2021/10/04 06:48:31;;;;;;;1999.90;999.90;;;;;;;17.40;72.47;101236.19;15538710;28;20298;-61
2021/10/04 06:56:06;;;;;;;1999.90;999.90;;;;;;;17.44;71.64;101256.88;15680769;23;20052;-58
2021/10/04 07:03:38;;;;;;;1999.90;999.90;;;;;;;17.25;73.51;101235.88;15675255;28;20041;-60
2021/10/04 07:11:11;;;;;;;1999.90;999.90;;;;;;;17.50;73.45;101259.00;15675404;28;20056;-60
2021/10/04 07:18:44;;;;;;;1999.90;999.90;;;;;;;17.58;73.00;101266.47;15674475;28;20497;-62
2021/10/04 07:26:18;;;;;;;1999.90;999.90;;;;;;;17.62;71.84;101266.56;15673419;28;20049;-62
2021/10/04 07:33:50;;;;;;;1999.90;999.90;;;;;;;17.57;70.94;101295.88;15672664;28;20037;-62
2021/10/04 07:41:24;;;;;;;1999.90;999.90;;;;;;;17.65;70.75;101299.69;15672507;28;20524;-59
2021/10/04 07:48:56;;;;;;;1999.90;999.90;;;;;;;17.83;70.03;101306.59;15654571;28;20458;-59
2021/10/04 07:56:30;;;;;;;1999.90;999.90;;;;;;;18.16;69.70;101302.50;15659131;28;20076;-61
2021/10/04 08:04:03;;;;;;;1999.90;999.90;;;;;;;18.39;67.89;101306.19;15683426;28;20696;-61
2021/10/04 08:11:37;;;;;;;1999.90;999.90;;;;;;;18.34;66.27;101329.13;15666536;28;20040;-60
2021/10/04 08:19:09;;;;;;;1999.90;999.90;;;;;;;18.32;66.27;101350.44;15683050;28;20425;-61
2021/10/04 08:26:43;;;;;;;1999.90;999.90;;;;;;;18.21;66.81;101350.19;15683010;28;20107;-62
2021/10/04 08:34:15;;;;;;;1999.90;999.90;;;;;;;18.17;67.31;101346.50;15683112;28;20045;-62
2021/10/04 08:41:51;;;;;;;1999.90;999.90;;;;;;;17.98;64.79;101369.03;15664629;28;20045;-60
2021/10/04 08:49:27;;;;;;;1999.90;999.90;;;;;;;17.95;65.94;101367.78;15681994;28;20114;-59
2021/10/04 08:57:00;;;;;;;1999.90;999.90;;;;;;;17.95;65.87;101372.59;15680229;28;20047;-62
2021/10/04 09:04:32;;;;;;;1999.90;999.90;;;;;;;18.03;66.90;101380.03;15679289;28;20389;-59
2021/10/04 09:12:07;;;;;;;1999.90;999.90;;;;;;;17.89;66.38;101374.88;15646441;28;20041;-60
2021/10/04 09:19:42;;;;;;;1999.90;999.90;;;;;;;17.68;65.03;101382.81;15679788;28;20047;-60
2021/10/04 09:27:30;;;;;;;1999.90;999.90;;;;;;;17.92;63.81;101390.25;15679860;28;20118;-57
2021/10/04 09:35:24;;;;;;;1999.90;999.90;;;;;;;17.89;64.58;101391.81;15661022;28;20076;-59
2021/10/04 09:42:59;;;;;;;1999.90;999.90;;;;;;;17.64;64.46;101419.41;15661282;28;20092;-57
2021/10/04 09:50:31;;;;;;;1999.90;999.90;;;;;;;17.59;64.79;101428.13;15678597;28;20060;-59
2021/10/04 09:58:13;;;;;;;1999.90;999.90;;;;;;;17.65;64.27;101426.69;15678214;28;20048;-59
2021/10/04 10:05:47;;;;;;;1999.90;999.90;;;;;;;17.79;64.22;101398.03;15677774;28;20540;-60
2021/10/04 10:13:24;;;;;;;1999.90;999.90;;;;;;;18.00;63.33;101394.91;15677603;28;20049;-60
2021/10/04 10:20:58;;;;;;;1999.90;999.90;;;;;;;18.24;62.71;101399.50;15657974;28;20063;-62
2021/10/04 10:28:35;;;;;;;1999.90;999.90;;;;;;;18.30;62.77;101409.31;15676515;28;20049;-63
2021/10/04 10:36:07;;;;;;;1999.90;999.90;;;;;;;18.22;63.16;101415.97;15658303;28;20076;-62
2021/10/04 10:44:03;;;;;;;1999.90;999.90;;;;;;;18.03;61.80;101423.25;15676309;28;20155;-62
2021/10/04 10:51:35;;;;;;;1999.90;999.90;;;;;;;18.07;62.37;101414.84;15675564;28;20447;-56
2021/10/04 10:59:26;;;;;;;1999.90;999.90;;;;;;;18.27;63.01;101433.47;15656644;28;20432;-59
2021/10/04 11:06:59;;;;;;;1999.90;999.90;;;;;;;18.17;63.08;101425.56;15674452;28;20167;-60
2021/10/04 11:14:56;;;;;;;1999.90;999.90;;;;;;;18.27;62.95;101424.19;15654605;28;20044;-61
2021/10/04 11:22:28;;;;;;;1999.90;999.90;;;;;;;18.22;62.50;101427.28;15672792;28;20037;-62
2021/10/04 11:30:07;;;;;;;1999.90;999.90;;;;;;;18.34;62.75;101439.31;15671875;28;20044;-62
2021/10/04 11:37:39;;;;;;;1999.90;999.90;;;;;;;18.18;63.09;101444.16;15671014;28;20080;-61
2021/10/04 11:45:13;;;;;;;1999.90;999.90;;;;;;;18.08;65.03;101454.00;15671457;28;20122;-62
2021/10/04 11:52:46;;;;;;;1999.90;999.90;;;;;;;17.92;65.32;101449.56;15637145;28;20079;-60
2021/10/04 12:00:19;;;;;;;1999.90;999.90;;;;;;;18.09;65.32;101454.81;15672000;28;20067;-58
2021/10/04 12:08:01;;;;;;;1999.90;999.90;;;;;;;18.12;65.11;101443.59;15671006;28;20045;-61
2021/10/04 12:15:35;;;;;;;1999.90;999.90;;;;;;;18.01;65.43;101453.00;15652459;28;20049;-59
2021/10/04 12:23:19;;;;;;;1999.90;999.90;;;;;;;17.91;65.20;101470.50;15636636;28;20052;-60
2021/10/04 12:30:55;;;;;;;1999.90;999.90;;;;;;;18.01;66.37;101470.78;15651874;28;20382;-56
2021/10/04 12:38:27;;;;;;;1999.90;999.90;;;;;;;18.02;67.05;101449.81;15670471;28;20448;-56
2021/10/04 12:46:07;;;;;;;1999.90;999.90;;;;;;;17.96;66.10;101458.94;15660862;28;20045;-56
2021/10/04 12:53:48;;;;;;;1999.90;999.90;;;;;;;17.84;65.58;101468.34;15661436;22;20053;-60
2021/10/04 13:01:21;;;;;;;1999.90;999.90;;;;;;;17.92;66.90;101474.97;15668332;28;20053;-59
2021/10/04 13:08:54;;;;;;;1999.90;999.90;;;;;;;17.94;66.26;101479.09;15668981;28;20061;-60
2021/10/04 13:16:28;;;;;;;1999.90;999.90;;;;;;;17.92;66.32;101472.97;15668715;28;20037;-58
2021/10/04 13:24:00;;;;;;;1999.90;999.90;;;;;;;17.88;66.29;101457.94;15685840;28;20508;-61
2021/10/04 13:31:36;;;;;;;1999.90;999.90;;;;;;;17.94;66.52;101481.91;15685954;28;20103;-62
2021/10/04 13:39:14;;;;;;;1999.90;999.90;;;;;;;17.89;66.67;101477.34;15709453;28;20086;-61
2021/10/04 13:46:48;;;;;;;1999.90;999.90;;;;;;;18.04;66.40;101475.72;15746226;28;20044;-60
2021/10/04 13:54:20;;;;;;;1999.90;999.90;;;;;;;18.02;66.38;101485.72;15745863;28;20044;-61
2021/10/04 14:01:54;;;;;;;1999.90;999.90;;;;;;;17.71;67.41;101449.84;15746266;28;20054;-60
2021/10/04 14:09:27;;;;;;;1999.90;999.90;;;;;;;17.83;67.03;101459.06;15728309;28;20082;-59
2021/10/04 14:17:00;;;;;;;;;;;;;;;17.65;66.55;101449.25;15727183;28;20071;-61
2021/10/04 14:24:33;;;;;;;;;;;;;;;17.72;66.54;101451.50;15745608;28;20293;-60
2021/10/04 14:32:07;;;;;;;1999.90;999.90;;;;;;;17.18;68.51;101424.63;15725684;28;20050;-61
2021/10/04 14:39:40;;;;;;;1999.90;999.90;;;;;;;16.96;69.45;101413.94;15679488;28;20041;-62
2021/10/04 14:47:14;;;;;;;1999.90;999.90;;;;;;;17.02;68.09;101429.44;15662780;28;20083;-61
2021/10/04 14:54:46;;;;;;;1999.90;999.90;;;;;;;17.18;68.46;101437.91;15662357;28;20049;-61
2021/10/04 15:02:20;;;;;;;1999.90;999.90;;;;;;;17.04;68.22;101418.59;15679819;28;20057;-62
2021/10/04 15:09:52;;;;;;;1999.90;999.90;;;;;;;17.27;66.95;101428.09;15678727;28;20041;-61
2021/10/04 15:17:26;;;;;;;1999.90;999.90;;;;;;;17.47;67.10;101440.31;15661039;28;20033;-61
2021/10/04 15:24:58;;;;;;;1999.90;999.90;;;;;;;17.44;67.74;101435.41;15660821;28;20131;-61
2021/10/04 15:32:32;;;;;;;1999.90;999.90;;;;;;;17.72;66.96;101446.66;15661923;28;20494;-61
2021/10/04 15:40:06;;;;;;;1999.90;999.90;;;;;;;17.68;66.76;101450.53;15729361;28;20095;-60
2021/10/04 15:47:40;;;;;;;1999.90;999.90;;;;;;;17.65;66.53;101463.38;15742245;28;20044;-61
2021/10/04 15:55:13;;;;;;;1999.90;999.90;;;;;;;17.56;67.17;101466.38;15740934;28;20040;-59
2021/10/04 16:02:47;;;;;;;1999.90;999.90;;;;;;;17.50;67.59;101447.25;15742755;28;20118;-59
2021/10/04 16:10:19;;;;;;;1999.90;999.90;;;;;;;17.15;69.40;101425.34;15720495;28;20456;-60
2021/10/04 16:17:52;;;;;;;1999.90;999.90;;;;;;;16.90;70.76;101432.31;15744441;28;20577;-59
2021/10/04 16:25:25;;;;;;;1999.90;999.90;;;;;;;16.88;70.55;101443.09;15716904;28;20040;-60
2021/10/04 16:32:59;;;;;;;1999.90;999.90;;;;;;;17.24;68.70;101442.13;15750798;28;20101;-61
2021/10/04 16:40:31;;;;;;;1999.90;999.90;;;;;;;17.25;68.55;101447.41;15697663;28;20044;-61
2021/10/04 16:48:06;;;;;;;1999.90;999.90;;;;;;;17.13;69.34;101450.28;15704168;28;20140;-60
2021/10/04 16:55:38;;;;;;;1999.90;999.90;;;;;;;17.16;69.54;101446.72;15670883;28;20562;-60
2021/10/04 17:03:12;;;;;;;1999.90;999.90;;;;;;;17.14;70.12;101466.03;15688053;28;20429;-61
2021/10/04 17:10:45;;;;;;;1999.90;999.90;;;;;;;17.11;69.73;101460.28;15668816;28;20052;-60
2021/10/04 17:18:19;;;;;;;1999.90;999.90;;;;;;;17.09;70.23;101460.66;15668555;28;20063;-62
2021/10/04 17:25:51;;;;;;;1999.90;999.90;;;;;;;16.97;69.94;101463.50;15668120;28;20048;-61
2021/10/04 17:33:25;;;;;;;1999.90;999.90;;;;;;;16.97;70.62;101467.13;15667902;28;20044;-61
2021/10/04 17:40:57;;;;;;;1999.90;999.90;;;;;;;16.86;70.69;101468.81;15742232;28;20049;-61
2021/10/04 17:48:31;;;;;;;1999.90;999.90;;;;;;;16.94;70.14;101489.59;15747100;28;20127;-61
2021/10/04 17:56:06;;;;;;;1999.90;999.90;;;;;;;17.00;70.14;101482.53;15729160;28;20303;-61
2021/10/04 18:03:39;;;;;;;1999.90;999.90;;;;;;;16.93;70.57;101482.31;15721942;28;20390;-61
2021/10/04 18:11:12;;;;;;;1999.90;999.90;;;;;;;16.98;70.08;101462.31;15682926;28;20048;-63
2021/10/04 18:18:46;;;;;;;1999.90;999.90;;;;;;;16.84;71.29;101484.47;15681885;28;20049;-62
2021/10/04 18:26:19;;;;;;;1999.90;999.90;;;;;;;16.74;71.15;101482.97;15656392;28;20140;-63
2021/10/04 18:33:53;;;;;;;1999.90;999.90;;;;;;;16.72;71.59;101488.13;15664534;28;20051;-62
2021/10/04 18:41:25;;;;;;;1999.90;999.90;;;;;;;16.08;73.77;101470.00;15741032;28;20523;-62
2021/10/04 18:48:59;;;;;;;1999.90;999.90;;;;;;;16.49;72.35;101485.00;15700487;28;20094;-60
2021/10/04 18:56:31;;;;;;;1999.90;999.90;;;;;;;16.61;71.76;101470.06;15664637;28;20083;-61
2021/10/04 19:04:05;;;;;;;1999.90;999.90;;;;;;;16.56;72.63;101476.75;15676432;28;20041;-61
2021/10/04 19:11:38;;;;;;;1999.90;999.90;;;;;;;16.50;73.06;101481.00;15670538;28;20468;-61
2021/10/04 19:19:11;;;;;;;1999.90;999.90;;;;;;;15.91;74.18;101475.88;15676552;28;20044;-62
2021/10/04 19:26:44;;;;;;;1999.90;999.90;;;;;;;16.13;73.71;101455.69;15679376;28;20102;-61
2021/10/04 19:34:17;;;;;;;1999.90;999.90;;;;;;;16.09;74.45;101466.03;15671954;28;20049;-60
2021/10/04 19:41:49;;;;;;;1999.90;999.90;;;;;;;16.11;74.25;101472.13;15676648;28;20084;-60
2021/10/04 19:49:23;;;;;;;1999.90;999.90;;;;;;;16.42;73.39;101476.31;15684470;28;20142;-61
2021/10/04 19:56:56;;;;;;;1999.90;999.90;;;;;;;16.42;73.42;101465.88;15703768;28;20045;-62
2021/10/04 20:04:29;;;;;;;1999.90;999.90;;;;;;;16.42;73.93;101448.13;15704295;28;20052;-61
2021/10/04 20:12:01;;;;;;;1999.90;999.90;;;;;;;16.45;73.90;101447.44;15701354;28;20714;-60
2021/10/04 20:19:36;;;;;;;1999.90;999.90;;;;;;;16.42;74.03;101442.50;15703200;28;20041;-61
2021/10/04 20:27:08;;;;;;;1999.90;999.90;;;;;;;15.92;74.97;101445.72;15702031;28;20044;-62
2021/10/04 20:34:42;;;;;;;1999.90;999.90;;;;;;;15.84;74.78;101434.25;15693713;28;20041;-59
2021/10/04 20:42:14;;;;;;;1999.90;999.90;;;;;;;16.26;73.55;101436.81;15694433;28;20095;-59
2021/10/04 20:49:48;;;;;;;1999.90;999.90;;;;;;;16.42;73.09;101419.97;15707127;28;20413;-56
2021/10/04 20:57:20;;;;;;;1999.90;999.90;;;;;;;15.92;75.57;101421.22;15693752;28;20447;-59
2021/10/04 21:04:56;;;;;;;1999.90;999.90;;;;;;;15.92;73.56;101421.22;15677139;28;20041;-58
2021/10/04 21:12:29;;;;;;;1999.90;999.90;;;;;;;15.90;72.56;101408.69;15683444;28;20075;-62
2021/10/04 21:20:03;;;;;;;1999.90;999.90;;;;;;;16.30;72.08;101423.66;15711677;28;20091;-62
2021/10/04 21:27:36;;;;;;;1999.90;999.90;;;;;;;16.32;72.57;101423.28;15686232;28;20073;-61
2021/10/04 21:35:10;;;;;;;1999.90;999.90;;;;;;;16.16;73.06;101409.13;15677483;28;20132;-61
2021/10/04 21:42:42;;;;;;;1999.90;999.90;;;;;;;16.21;73.07;101406.06;15683714;28;20425;-62
2021/10/04 21:50:16;;;;;;;1999.90;999.90;;;;;;;16.28;73.34;101397.84;15691373;28;20147;-61
2021/10/04 21:57:51;;;;;;;1999.90;999.90;;;;;;;16.02;73.99;101386.97;15728025;28;20055;-61
2021/10/04 22:05:44;;;;;;;1999.90;999.90;;;;;;;16.07;74.17;101383.91;15727575;28;20037;-61
2021/10/04 22:13:16;;;;;;;1999.90;999.90;;;;;;;15.91;74.59;101376.53;15711284;28;20059;-60
2021/10/04 22:20:51;;;;;;;1999.90;999.90;;;;;;;15.76;74.57;101375.28;15710463;28;20040;-61
2021/10/04 22:28:24;;;;;;;1999.90;999.90;;;;;;;15.37;75.78;101368.31;15745350;28;20476;-60
2021/10/04 22:35:58;;;;;;;1999.90;999.90;;;;;;;15.48;75.57;101369.47;15743862;28;20044;-60
2021/10/04 22:43:30;;;;;;;1999.90;999.90;;;;;;;15.71;74.59;101364.25;15743555;28;20051;-60
2021/10/04 22:51:06;;;;;;;1999.90;999.90;;;;;;;15.72;74.05;101341.38;15710248;28;20045;-61
2021/10/04 22:58:38;;;;;;;1999.90;999.90;;;;;;;15.68;73.99;101334.00;15680372;28;20053;-60
2021/10/04 23:06:11;;;;;;;1999.90;999.90;;;;;;;15.93;73.45;101313.09;15661917;28;20049;-61
2021/10/04 23:13:43;;;;;;;1999.90;999.90;;;;;;;16.09;73.39;101319.63;15695981;28;20040;-62
2021/10/04 23:21:17;;;;;;;1999.90;999.90;;;;;;;16.14;73.01;101318.53;15706323;28;20507;-61
2021/10/04 23:28:50;;;;;;;1999.90;999.90;;;;;;;16.27;72.88;101314.53;15730597;28;20052;-61
2021/10/04 23:36:23;;;;;;;1999.90;999.90;;;;;;;16.12;73.97;101304.81;15695127;28;20132;-61
2021/10/04 23:43:55;;;;;;;1999.90;999.90;;;;;;;15.90;74.93;101290.47;15661116;28;20049;-61
2021/10/04 23:51:29;;;;;;;1999.90;999.90;;;;;;;15.82;75.62;101295.06;15738785;28;20131;-61
2021/10/04 23:59:02;;;;;;;1999.90;999.90;;;;;;;15.69;75.22;101270.94;15739964;28;20048;-61
